Time;durP1;ratioP1;P1;durP2;ratioP2;P2;SDS_P1;SDS_P2;PMS_P1;PMS_P2;Temp;Humidity;BMP_temperature;BMP_pressure;BME280_temperature;BME280_humidity;BME280_pressure;Samples;Min_cycle;Max_cycle;Signal;HPM_P1;HPM_P2
2023/07/21 00:01:29;;;;;;;;;;;17.20;99.90;;;;;;7607455;19;19948;-75
2023/07/21 00:04:01;;;;;;;;;;;17.10;99.90;;;;;;7614385;19;19938;-73
2023/07/21 00:06:33;;;;;;;;;;;17.10;99.90;;;;;;7608392;19;19914;-73
2023/07/21 00:09:06;;;;;;;;;;;17.10;99.90;;;;;;7612438;19;19915;-75
2023/07/21 00:11:38;;;;;;;;;;;17.10;99.90;;;;;;7621291;19;19919;-73
2023/07/21 00:14:11;;;;;;;;;;;17.20;99.90;;;;;;7609398;19;19918;-74
2023/07/21 00:16:43;;;;;;;;;;;17.10;99.90;;;;;;7598616;19;20010;-74
2023/07/21 00:19:15;;;;;;;;;;;17.10;99.90;;;;;;7598632;19;20373;-74
2023/07/21 00:21:47;;;;;;;;;;;17.00;99.90;;;;;;7600041;19;19980;-73
2023/07/21 00:24:20;;;;;;;;;;;17.00;99.90;;;;;;7608347;19;19933;-74
2023/07/21 00:26:53;;;;;;;;;;;17.00;99.90;;;;;;7619582;19;19958;-74
2023/07/21 00:29:25;;;;;;;;;;;17.00;99.90;;;;;;7617699;19;19954;-74
2023/07/21 00:31:57;;;;;;;;;;;17.00;99.90;;;;;;7618133;19;19919;-74
2023/07/21 00:34:29;;;;;;;;;;;17.00;99.90;;;;;;7583234;19;19933;-74
2023/07/21 00:37:01;;;;;;;;;;;17.00;99.90;;;;;;7582673;19;19956;-73
2023/07/21 00:39:36;;;;;;;;;;;17.10;99.90;;;;;;7592584;19;19923;-74
2023/07/21 00:42:09;;;;;;;;;;;17.10;99.90;;;;;;7584225;19;19919;-74
2023/07/21 00:44:42;;;;;;;;;;;17.00;99.90;;;;;;7589061;19;20634;-74
2023/07/21 00:47:14;;;;;;;;;;;17.00;99.90;;;;;;7585246;19;19990;-73
2023/07/21 00:49:47;;;;;;;;;;;17.00;99.90;;;;;;7580694;19;19919;-73
2023/07/21 00:52:20;;;;;;;;;;;17.00;99.90;;;;;;7595002;19;19910;-74
2023/07/21 00:54:52;;;;;;;;;;;16.90;99.90;;;;;;7567727;19;19914;-75
2023/07/21 00:57:25;;;;;;;;;;;16.90;99.90;;;;;;7599252;19;19951;-73
2023/07/21 00:59:57;;;;;;;;;;;17.00;99.90;;;;;;7597908;19;19934;-73
2023/07/21 01:02:29;;;;;;;;;;;17.00;99.90;;;;;;7574342;19;19922;-74
2023/07/21 01:05:06;;;;;;;;;;;17.00;99.90;;;;;;7600698;19;19930;-74
2023/07/21 01:07:39;;;;;;;;;;;16.90;99.90;;;;;;7623911;19;19923;-73
2023/07/21 01:10:11;;;;;;;;;;;17.00;99.90;;;;;;7618109;19;19918;-74
2023/07/21 01:12:44;;;;;;;;;;;17.00;99.90;;;;;;7625316;19;19922;-74
2023/07/21 01:15:16;;;;;;;;;;;17.00;99.90;;;;;;7620772;19;20006;-74
2023/07/21 01:17:49;;;;;;;;;;;17.00;99.90;;;;;;7621925;19;19915;-74
2023/07/21 01:20:23;;;;;;;;;;;17.10;99.90;;;;;;7613776;19;19939;-74
2023/07/21 01:23:06;;;;;;;;;;;17.20;99.90;;;;;;7615547;19;20333;-73
2023/07/21 01:25:40;;;;;;;;;;;17.10;99.90;;;;;;7622414;19;19923;-74
2023/07/21 01:28:13;;;;;;;;;;;17.10;99.90;;;;;;7625451;19;19911;-74
2023/07/21 01:30:48;;;;;;;;;;;17.00;99.90;;;;;;7617265;19;19922;-74
2023/07/21 01:33:20;;;;;;;;;;;17.00;99.90;;;;;;7620698;19;19919;-74
2023/07/21 01:35:53;;;;;;;;;;;16.90;99.90;;;;;;7619699;19;20876;-75
2023/07/21 01:38:27;;;;;;;;;;;16.90;99.90;;;;;;7613885;19;20541;-74
2023/07/21 01:40:59;;;;;;;;;;;16.90;99.90;;;;;;7620587;19;19930;-75
2023/07/21 01:43:31;;;;;;;;;;;16.80;99.90;;;;;;7618184;19;20258;-75
2023/07/21 01:46:04;;;;;;;;;;;16.70;99.90;;;;;;7617733;19;20019;-73
2023/07/21 01:48:36;;;;;;;;;;;16.70;99.90;;;;;;7602759;19;19919;-73
2023/07/21 01:51:08;;;;;;;;;;;16.70;99.90;;;;;;7574907;19;19986;-73
2023/07/21 01:53:41;;;;;;;;;;;16.70;99.90;;;;;;7553908;19;19926;-72
2023/07/21 01:56:34;;;;;;;;;;;16.70;99.90;;;;;;7591123;19;19923;-74
2023/07/21 01:59:10;;;;;;;;;;;16.70;99.90;;;;;;7586256;19;19915;-74
2023/07/21 02:01:44;;;;;;;;;;;16.80;99.90;;;;;;7558689;19;20184;-74
2023/07/21 02:04:17;;;;;;;;;;;16.80;99.90;;;;;;7592376;19;19919;-73
2023/07/21 02:06:49;;;;;;;;;;;16.70;99.90;;;;;;7596786;19;20341;-75
2023/07/21 02:09:22;;;;;;;;;;;16.70;99.90;;;;;;7587068;19;19923;-73
2023/07/21 02:11:54;;;;;;;;;;;16.80;99.90;;;;;;7591826;19;19919;-73
2023/07/21 02:14:40;;;;;;;;;;;16.80;99.90;;;;;;7592084;19;19941;-74
2023/07/21 02:17:12;;;;;;;;;;;16.90;99.90;;;;;;7589956;19;19925;-75
2023/07/21 02:19:45;;;;;;;;;;;17.00;99.90;;;;;;7619389;19;19927;-74
2023/07/21 02:22:17;;;;;;;;;;;17.00;99.90;;;;;;7608749;19;20257;-74
2023/07/21 02:24:49;;;;;;;;;;;17.10;99.90;;;;;;7595745;19;20395;-74
2023/07/21 02:27:21;;;;;;;;;;;17.00;99.90;;;;;;7604195;19;19915;-74
2023/07/21 02:29:53;;;;;;;;;;;16.90;99.90;;;;;;7599112;19;19965;-74
2023/07/21 02:32:28;;;;;;;;;;;17.00;99.90;;;;;;7597174;19;19926;-73
2023/07/21 02:35:00;;;;;;;;;;;16.90;99.90;;;;;;7592602;19;19929;-74
2023/07/21 02:37:36;;;;;;;;;;;16.80;99.90;;;;;;7575105;19;19914;-75
2023/07/21 02:40:09;;;;;;;;;;;16.80;99.90;;;;;;7566403;19;19915;-73
2023/07/21 02:42:42;;;;;;;;;;;16.90;99.90;;;;;;7572119;19;19919;-73
2023/07/21 02:45:14;;;;;;;;;;;16.90;99.90;;;;;;7581693;19;20014;-74
2023/07/21 02:47:46;;;;;;;;;;;16.90;99.90;;;;;;7588161;19;19952;-74
2023/07/21 02:50:19;;;;;;;;;;;16.90;99.90;;;;;;7598794;19;19923;-74
2023/07/21 02:52:51;;;;;;;;;;;16.80;99.90;;;;;;7583101;19;19923;-74
2023/07/21 02:55:23;;;;;;;;;;;16.80;99.90;;;;;;7596513;19;19914;-74
2023/07/21 02:57:56;;;;;;;;;;;16.80;99.90;;;;;;7597349;19;19934;-74
2023/07/21 03:00:36;;;;;;;;;;;16.80;99.90;;;;;;7596676;19;20444;-73
2023/07/21 03:03:20;;;;;;;;;;;16.80;99.90;;;;;;7595090;19;19954;-74
2023/07/21 03:05:56;;;;;;;;;;;16.80;99.90;;;;;;7593592;19;19926;-75
2023/07/21 03:08:30;;;;;;;;;;;16.70;99.90;;;;;;7596814;19;20988;-74
2023/07/21 03:11:13;;;;;;;;;;;16.70;99.90;;;;;;7596338;19;19922;-73
2023/07/21 03:13:59;;;;;;;;;;;16.60;99.90;;;;;;7603677;19;19923;-74
2023/07/21 03:16:33;;;;;;;;;;;16.50;99.90;;;;;;7580237;19;20379;-73
2023/07/21 03:19:05;;;;;;;;;;;16.50;99.90;;;;;;7584520;19;19927;-74
2023/07/21 03:21:38;;;;;;;;;;;16.50;99.90;;;;;;7601766;19;20404;-73
2023/07/21 03:24:12;;;;;;;;;;;16.50;99.90;;;;;;7586648;19;19929;-74
2023/07/21 03:26:44;;;;;;;;;;;16.50;99.90;;;;;;7596011;19;19933;-74
2023/07/21 03:29:17;;;;;;;;;;;16.60;99.90;;;;;;7602857;19;19927;-74
2023/07/21 03:31:52;;;;;;;;;;;16.60;99.90;;;;;;7593548;19;19927;-77
2023/07/21 03:34:24;;;;;;;;;;;16.60;99.90;;;;;;7601607;19;19933;-74
2023/07/21 03:36:56;;;;;;;;;;;16.50;99.90;;;;;;7610882;19;19959;-74
2023/07/21 03:39:29;;;;;;;;;;;16.50;99.90;;;;;;7594639;19;20821;-75
2023/07/21 03:42:01;;;;;;;;;;;16.50;99.90;;;;;;7568257;19;20751;-74
2023/07/21 03:44:33;;;;;;;;;;;16.60;99.90;;;;;;7564376;19;19926;-75
2023/07/21 03:47:05;;;;;;;;;;;16.60;99.90;;;;;;7584829;19;19931;-75
2023/07/21 03:49:46;;;;;;;;;;;16.50;99.90;;;;;;7586129;19;19923;-73
2023/07/21 03:52:19;;;;;;;;;;;16.50;99.90;;;;;;7590583;19;19926;-75
2023/07/21 03:54:52;;;;;;;;;;;16.50;99.90;;;;;;7596302;19;19925;-76
2023/07/21 03:57:25;;;;;;;;;;;16.50;99.90;;;;;;7599845;19;20212;-75
2023/07/21 03:59:58;;;;;;;;;;;16.50;99.90;;;;;;7593209;19;19958;-72
2023/07/21 04:02:30;;;;;;;;;;;16.40;99.90;;;;;;7581947;19;20838;-75
2023/07/21 04:05:02;;;;;;;;;;;16.30;99.90;;;;;;7581496;19;20821;-74
2023/07/21 04:07:35;;;;;;;;;;;16.30;99.90;;;;;;7605886;19;19922;-72
2023/07/21 04:10:08;;;;;;;;;;;16.30;99.90;;;;;;7588382;19;20665;-73
2023/07/21 04:12:41;;;;;;;;;;;16.40;99.90;;;;;;7605957;19;19919;-73
2023/07/21 04:15:13;;;;;;;;;;;16.40;99.90;;;;;;7597649;19;20660;-74
2023/07/21 04:17:48;;;;;;;;;;;16.40;99.90;;;;;;7599269;19;19936;-72
2023/07/21 04:20:22;;;;;;;;;;;16.40;99.90;;;;;;7595016;19;19918;-77
2023/07/21 04:22:54;;;;;;;;;;;16.30;99.90;;;;;;7590724;19;19918;-73
2023/07/21 04:25:27;;;;;;;;;;;16.30;99.90;;;;;;7566302;19;19921;-73
2023/07/21 04:28:00;;;;;;;;;;;16.40;99.90;;;;;;7567955;19;19954;-73
2023/07/21 04:30:32;;;;;;;;;;;16.40;99.90;;;;;;7571042;19;20870;-74
2023/07/21 04:33:05;;;;;;;;;;;16.40;99.90;;;;;;7560937;19;21054;-74
2023/07/21 04:35:43;;;;;;;;;;;16.50;99.90;;;;;;7556958;19;20451;-74
2023/07/21 04:38:16;;;;;;;;;;;16.60;99.90;;;;;;7563565;19;21413;-73
2023/07/21 04:40:54;;;;;;;;;;;16.50;99.90;;;;;;7525032;19;21225;-74
2023/07/21 04:43:26;;;;;;;;;;;16.60;99.90;;;;;;7512181;19;20438;-74
2023/07/21 04:45:59;;;;;;;;;;;16.60;99.90;;;;;;7508522;19;19929;-73
2023/07/21 04:48:37;;;;;;;;;;;16.70;99.90;;;;;;7523514;19;19926;-74
2023/07/21 04:51:11;;;;;;;;;;;16.70;99.90;;;;;;7548496;19;19922;-74
2023/07/21 04:53:43;;;;;;;;;;;16.80;99.90;;;;;;7583067;19;19926;-73
2023/07/21 04:56:15;;;;;;;;;;;16.90;99.90;;;;;;7559522;19;20318;-74
2023/07/21 04:58:56;;;;;;;;;;;16.90;99.90;;;;;;7548866;19;19926;-74
2023/07/21 05:01:28;;;;;;;;;;;17.00;99.90;;;;;;7548351;19;20229;-75
2023/07/21 05:04:01;;;;;;;;;;;17.00;99.90;;;;;;7569495;19;19918;-74
2023/07/21 05:06:33;;;;;;;;;;;17.20;99.90;;;;;;7545769;19;19942;-75
2023/07/21 05:09:05;;;;;;;;;;;17.20;99.90;;;;;;7519419;19;20907;-74
2023/07/21 05:11:38;;;;;;;;;;;17.20;99.90;;;;;;7541085;19;19918;-73
2023/07/21 05:14:12;;;;;;;;;;;17.30;99.90;;;;;;7553002;19;20843;-73
2023/07/21 05:17:14;;;;;;;;;;;17.40;99.90;;;;;;7558061;19;19923;-73
2023/07/21 05:19:55;;;;;;;;;;;17.40;99.90;;;;;;7553106;19;19915;-72
2023/07/21 05:22:46;;;;;;;;;;;17.40;99.90;;;;;;7536398;19;19923;-72
2023/07/21 05:25:34;;;;;;;;;;;17.50;99.90;;;;;;7538955;19;21382;-74
2023/07/21 05:28:08;;;;;;;;;;;17.40;99.90;;;;;;7550756;19;19968;-73
2023/07/21 05:30:42;;;;;;;;;;;17.40;99.90;;;;;;7564534;19;19923;-73
2023/07/21 05:33:16;;;;;;;;;;;17.50;99.90;;;;;;7545015;19;19922;-73
2023/07/21 05:35:49;;;;;;;;;;;17.50;99.90;;;;;;7511280;19;19918;-74
2023/07/21 05:38:26;;;;;;;;;;;17.50;99.90;;;;;;7538884;19;20820;-73
2023/07/21 05:40:59;;;;;;;;;;;17.50;99.90;;;;;;7526460;19;20191;-73
2023/07/21 05:43:34;;;;;;;;;;;17.60;99.90;;;;;;7557259;19;19918;-75
2023/07/21 05:46:08;;;;;;;;;;;17.60;99.90;;;;;;7513900;19;20355;-73
2023/07/21 05:48:46;;;;;;;;;;;17.60;99.90;;;;;;7520475;19;20279;-74
2023/07/21 05:51:19;;;;;;;;;;;17.60;99.90;;;;;;7541035;19;19941;-73
2023/07/21 05:53:55;;;;;;;;;;;17.70;99.90;;;;;;7524634;19;20482;-73
2023/07/21 05:56:30;;;;;;;;;;;17.80;99.90;;;;;;7523345;19;19947;-74
2023/07/21 05:59:07;;;;;;;;;;;17.90;99.90;;;;;;7549237;19;19934;-75
2023/07/21 06:01:40;;;;;;;;;;;18.00;99.90;;;;;;7525836;19;19923;-75
2023/07/21 06:04:14;;;;;;;;;;;18.10;99.90;;;;;;7562296;19;19955;-74
2023/07/21 06:06:56;;;;;;;;;;;18.20;99.90;;;;;;7558631;19;20471;-73
2023/07/21 06:09:58;;;;;;;;;;;18.30;99.90;;;;;;7531247;19;19934;-75
2023/07/21 06:12:36;;;;;;;;;;;18.50;99.90;;;;;;7569689;19;20399;-74
2023/07/21 06:15:41;;;;;;;;;;;18.60;99.90;;;;;;7569312;19;19915;-75
2023/07/21 06:18:43;;;;;;;;;;;18.60;99.90;;;;;;7563155;19;19919;-75
2023/07/21 06:21:15;;;;;;;;;;;18.70;99.90;;;;;;7536959;19;19930;-75
2023/07/21 06:23:49;;;;;;;;;;;18.80;99.90;;;;;;7551995;19;19915;-74
2023/07/21 06:26:21;;;;;;;;;;;18.90;99.90;;;;;;7582083;19;20030;-74
2023/07/21 06:28:53;;;;;;;;;;;19.00;99.90;;;;;;7594921;19;19930;-75
2023/07/21 06:31:26;;;;;;;;;;;19.10;99.90;;;;;;7588168;19;19926;-75
2023/07/21 06:34:31;;;;;;;;;;;19.10;99.90;;;;;;7603693;19;20890;-74
2023/07/21 06:37:19;;;;;;;;;;;19.30;99.90;;;;;;7603109;19;21075;-74
2023/07/21 06:39:51;;;;;;;;;;;19.20;99.90;;;;;;7587094;19;19976;-74
2023/07/21 06:42:34;;;;;;;;;;;19.30;99.90;;;;;;7599233;19;19915;-74
2023/07/21 06:45:20;;;;;;;;;;;19.30;99.90;;;;;;7584019;19;19953;-75
2023/07/21 06:48:20;;;;;;;;;;;19.30;99.90;;;;;;7593148;19;19935;-75
2023/07/21 06:51:01;;;;;;;;;;;19.30;99.90;;;;;;7575282;19;19911;-76
2023/07/21 06:53:33;;;;;;;;;;;19.50;99.90;;;;;;7591715;19;19926;-74
2023/07/21 06:56:07;;;;;;;;;;;19.50;99.90;;;;;;7585182;19;19955;-75
2023/07/21 06:58:39;;;;;;;;;;;19.60;99.90;;;;;;7581503;19;20396;-74
2023/07/21 07:01:11;;;;;;;;;;;19.70;99.90;;;;;;7565013;19;19919;-74
2023/07/21 07:03:44;;;;;;;;;;;19.90;99.90;;;;;;7577014;19;19922;-74
2023/07/21 07:06:19;;;;;;;;;;;20.10;99.90;;;;;;7576192;19;19918;-75
2023/07/21 07:08:52;;;;;;;;;;;20.20;99.90;;;;;;7582098;19;19922;-75
2023/07/21 07:11:24;;;;;;;;;;;20.30;99.90;;;;;;7530808;19;19922;-75
2023/07/21 07:13:57;;;;;;;;;;;20.30;99.90;;;;;;7541358;19;19926;-74
2023/07/21 07:16:30;;;;;;;;;;;20.40;99.90;;;;;;7548374;19;19927;-75
2023/07/21 07:19:04;;;;;;;;;;;20.40;99.90;;;;;;7550680;19;20010;-74
2023/07/21 07:21:36;;;;;;;;;;;20.50;99.90;;;;;;7570725;19;20357;-74
2023/07/21 07:24:09;;;;;;;;;;;20.50;99.90;;;;;;7507962;19;19926;-75
2023/07/21 07:26:41;;;;;;;;;;;20.50;99.90;;;;;;7551231;19;19928;-73
2023/07/21 07:29:17;;;;;;;;;;;20.50;99.90;;;;;;7552371;19;19958;-74
2023/07/21 07:31:49;;;;;;;;;;;20.50;99.90;;;;;;7545384;19;19919;-75
2023/07/21 07:34:21;;;;;;;;;;;20.50;99.90;;;;;;7577448;19;19975;-74
2023/07/21 07:36:54;;;;;;;;;;;20.50;99.90;;;;;;7576595;19;19919;-74
2023/07/21 07:39:26;;;;;;;;;;;20.50;99.90;;;;;;7567122;19;19922;-74
2023/07/21 07:41:59;;;;;;;;;;;20.50;99.90;;;;;;7579534;19;19962;-74
2023/07/21 07:44:31;;;;;;;;;;;20.50;99.90;;;;;;7572910;19;19922;-73
2023/07/21 07:47:03;;;;;;;;;;;20.60;99.90;;;;;;7567604;19;21139;-75
2023/07/21 07:49:36;;;;;;;;;;;20.60;99.90;;;;;;7559833;19;19937;-75
2023/07/21 07:52:08;;;;;;;;;;;20.60;99.90;;;;;;7559053;19;19952;-73
2023/07/21 07:54:40;;;;;;;;;;;20.60;99.90;;;;;;7585796;19;20873;-75
2023/07/21 07:57:14;;;;;;;;;;;20.70;99.90;;;;;;7571513;19;21789;-74
2023/07/21 07:59:47;;;;;;;;;;;20.70;99.90;;;;;;7579505;19;19922;-74
2023/07/21 08:02:19;;;;;;;;;;;20.70;99.90;;;;;;7553069;19;21092;-74
2023/07/21 08:04:51;;;;;;;;;;;20.70;99.90;;;;;;7569196;19;19922;-74
2023/07/21 08:07:23;;;;;;;;;;;20.90;99.90;;;;;;7566609;19;19926;-73
2023/07/21 08:09:55;;;;;;;;;;;20.80;99.90;;;;;;7587446;19;20012;-74
2023/07/21 08:12:28;;;;;;;;;;;20.70;99.90;;;;;;7565775;19;20388;-74
2023/07/21 08:15:00;;;;;;;;;;;20.70;99.90;;;;;;7559996;19;19950;-74
2023/07/21 08:17:35;;;;;;;;;;;20.60;99.90;;;;;;7539096;19;19926;-74
2023/07/21 08:20:08;;;;;;;;;;;20.60;99.90;;;;;;7531083;19;19936;-73
2023/07/21 08:22:40;;;;;;;;;;;20.50;99.90;;;;;;7524896;19;20209;-75
2023/07/21 08:25:13;;;;;;;;;;;20.50;99.90;;;;;;7556307;19;19918;-73
2023/07/21 08:27:45;;;;;;;;;;;20.50;99.90;;;;;;7565457;19;20249;-73
2023/07/21 08:30:17;;;;;;;;;;;20.50;99.90;;;;;;7551376;19;19929;-73
2023/07/21 08:32:50;;;;;;;;;;;20.50;99.90;;;;;;7548602;19;19922;-73
2023/07/21 08:35:27;;;;;;;;;;;20.60;99.90;;;;;;7565682;19;21504;-73
2023/07/21 08:37:59;;;;;;;;;;;20.70;99.90;;;;;;7573694;19;19919;-73
2023/07/21 08:40:32;;;;;;;;;;;20.70;99.90;;;;;;7564628;19;20626;-73
2023/07/21 08:43:05;;;;;;;;;;;20.70;99.90;;;;;;7589619;19;20798;-74
2023/07/21 08:45:40;;;;;;;;;;;20.70;99.90;;;;;;7577792;19;19922;-73
2023/07/21 08:48:16;;;;;;;;;;;20.40;99.90;;;;;;7582369;19;19930;-73
2023/07/21 08:50:48;;;;;;;;;;;20.30;99.90;;;;;;7590680;19;19919;-73
2023/07/21 08:53:21;;;;;;;;;;;20.40;99.90;;;;;;7602963;19;19922;-74
2023/07/21 08:55:54;;;;;;;;;;;20.30;99.90;;;;;;7601252;19;19926;-75
2023/07/21 08:58:27;;;;;;;;;;;20.40;99.90;;;;;;7587403;19;19942;-73
2023/07/21 09:00:59;;;;;;;;;;;20.10;99.90;;;;;;7571897;19;19921;-73
2023/07/21 09:03:31;;;;;;;;;;;19.70;99.90;;;;;;7574140;19;19929;-74
2023/07/21 09:06:04;;;;;;;;;;;19.60;99.90;;;;;;7586899;19;19919;-74
2023/07/21 09:08:36;;;;;;;;;;;19.30;99.90;;;;;;7585185;19;19926;-74
2023/07/21 09:11:09;;;;;;;;;;;19.40;99.90;;;;;;7573710;19;19983;-75
2023/07/21 09:13:49;;;;;;;;;;;19.20;99.90;;;;;;7585598;19;20351;-74
2023/07/21 09:16:22;;;;;;;;;;;19.30;99.90;;;;;;7565235;19;20733;-73
2023/07/21 09:18:56;;;;;;;;;;;19.30;99.90;;;;;;7554079;19;19922;-73
2023/07/21 09:21:30;;;;;;;;;;;19.30;99.90;;;;;;7525536;19;20703;-75
2023/07/21 09:24:03;;;;;;;;;;;19.50;99.90;;;;;;7572012;19;19934;-75
2023/07/21 09:26:35;;;;;;;;;;;19.50;99.90;;;;;;7593364;19;19919;-75
2023/07/21 09:29:16;;;;;;;;;;;19.60;99.90;;;;;;7612976;19;19910;-74
